sensor_id;sensor_type;location;lat;lon;timestamp;temperature;humidity
18041;DHT22;9145;48.588;9.250;2024-02-04T00:00:18;8.00;99.90
18041;DHT22;9145;48.588;9.250;2024-02-04T00:02:45;8.00;99.90
18041;DHT22;9145;48.588;9.250;2024-02-04T00:05:12;8.00;99.90
18041;DHT22;9145;48.588;9.250;2024-02-04T00:07:39;8.00;99.90
18041;DHT22;9145;48.588;9.250;2024-02-04T00:10:06;7.90;99.90
18041;DHT22;9145;48.588;9.250;2024-02-04T00:12:33;8.00;99.90
18041;DHT22;9145;48.588;9.250;2024-02-04T00:15:01;8.00;99.90
18041;DHT22;9145;48.588;9.250;2024-02-04T00:17:29;7.90;99.90
18041;DHT22;9145;48.588;9.250;2024-02-04T00:19:58;8.00;99.90
18041;DHT22;9145;48.588;9.250;2024-02-04T00:22:25;8.00;99.90
18041;DHT22;9145;48.588;9.250;2024-02-04T00:24:52;8.00;99.90
18041;DHT22;9145;48.588;9.250;2024-02-04T00:27:19;8.00;99.90
18041;DHT22;9145;48.588;9.250;2024-02-04T00:29:46;8.00;99.90
18041;DHT22;9145;48.588;9.250;2024-02-04T00:32:14;8.00;99.90
18041;DHT22;9145;48.588;9.250;2024-02-04T00:34:41;8.00;99.90
18041;DHT22;9145;48.588;9.250;2024-02-04T00:37:08;8.00;99.90
18041;DHT22;9145;48.588;9.250;2024-02-04T00:39:35;7.90;99.90
18041;DHT22;9145;48.588;9.250;2024-02-04T00:42:01;7.90;99.90
18041;DHT22;9145;48.588;9.250;2024-02-04T00:44:28;7.90;99.90
18041;DHT22;9145;48.588;9.250;2024-02-04T00:46:55;7.90;99.90
18041;DHT22;9145;48.588;9.250;2024-02-04T00:49:23;7.80;99.90
18041;DHT22;9145;48.588;9.250;2024-02-04T00:51:51;7.80;99.90
18041;DHT22;9145;48.588;9.250;2024-02-04T00:54:18;7.80;99.90
18041;DHT22;9145;48.588;9.250;2024-02-04T00:56:45;7.80;99.90
18041;DHT22;9145;48.588;9.250;2024-02-04T00:59:12;7.70;99.90
18041;DHT22;9145;48.588;9.250;2024-02-04T01:01:39;7.70;99.90
18041;DHT22;9145;48.588;9.250;2024-02-04T01:04:06;7.70;99.90
18041;DHT22;9145;48.588;9.250;2024-02-04T01:06:34;7.60;99.90
18041;DHT22;9145;48.588;9.250;2024-02-04T01:09:01;7.60;99.90
18041;DHT22;9145;48.588;9.250;2024-02-04T01:11:28;7.60;99.90
18041;DHT22;9145;48.588;9.250;2024-02-04T01:13:55;7.70;99.90
18041;DHT22;9145;48.588;9.250;2024-02-04T01:16:22;7.60;99.90
18041;DHT22;9145;48.588;9.250;2024-02-04T01:18:48;7.60;99.90
18041;DHT22;9145;48.588;9.250;2024-02-04T01:21:15;7.60;99.90
18041;DHT22;9145;48.588;9.250;2024-02-04T01:23:43;7.60;99.90
18041;DHT22;9145;48.588;9.250;2024-02-04T01:26:10;7.60;99.90
18041;DHT22;9145;48.588;9.250;2024-02-04T01:28:37;7.60;99.90
18041;DHT22;9145;48.588;9.250;2024-02-04T01:31:04;7.60;99.90
18041;DHT22;9145;48.588;9.250;2024-02-04T01:33:30;7.60;99.90
18041;DHT22;9145;48.588;9.250;2024-02-04T01:35:57;7.60;99.90
18041;DHT22;9145;48.588;9.250;2024-02-04T01:38:24;7.60;99.90
18041;DHT22;9145;48.588;9.250;2024-02-04T01:40:52;7.60;99.90
18041;DHT22;9145;48.588;9.250;2024-02-04T01:43:19;7.60;99.90
18041;DHT22;9145;48.588;9.250;2024-02-04T01:45:50;7.60;99.90
18041;DHT22;9145;48.588;9.250;2024-02-04T01:48:17;7.60;99.90
18041;DHT22;9145;48.588;9.250;2024-02-04T01:50:44;7.60;99.90
18041;DHT22;9145;48.588;9.250;2024-02-04T01:53:11;7.60;99.90
18041;DHT22;9145;48.588;9.250;2024-02-04T01:55:39;7.60;99.90
18041;DHT22;9145;48.588;9.250;2024-02-04T01:58:07;7.50;99.90
18041;DHT22;9145;48.588;9.250;2024-02-04T02:00:34;7.50;99.90
18041;DHT22;9145;48.588;9.250;2024-02-04T02:03:02;7.40;99.90
18041;DHT22;9145;48.588;9.250;2024-02-04T02:05:30;7.40;99.90
18041;DHT22;9145;48.588;9.250;2024-02-04T02:07:57;7.40;99.90
18041;DHT22;9145;48.588;9.250;2024-02-04T02:10:24;7.40;99.90
18041;DHT22;9145;48.588;9.250;2024-02-04T02:12:58;7.40;99.90
18041;DHT22;9145;48.588;9.250;2024-02-04T02:15:30;7.40;99.90
18041;DHT22;9145;48.588;9.250;2024-02-04T02:17:59;7.40;99.90
18041;DHT22;9145;48.588;9.250;2024-02-04T02:20:34;7.30;99.90
18041;DHT22;9145;48.588;9.250;2024-02-04T02:23:07;7.40;99.90
18041;DHT22;9145;48.588;9.250;2024-02-04T02:25:38;7.40;99.90
18041;DHT22;9145;48.588;9.250;2024-02-04T02:28:05;7.40;99.90
18041;DHT22;9145;48.588;9.250;2024-02-04T02:30:32;7.40;99.90
18041;DHT22;9145;48.588;9.250;2024-02-04T02:32:59;7.40;99.90
18041;DHT22;9145;48.588;9.250;2024-02-04T02:35:26;7.40;99.90
18041;DHT22;9145;48.588;9.250;2024-02-04T02:37:56;7.40;99.90
18041;DHT22;9145;48.588;9.250;2024-02-04T02:40:29;7.40;99.90
18041;DHT22;9145;48.588;9.250;2024-02-04T02:43:02;7.50;99.90
18041;DHT22;9145;48.588;9.250;2024-02-04T02:45:30;7.50;99.90
18041;DHT22;9145;48.588;9.250;2024-02-04T02:47:57;7.50;99.90
18041;DHT22;9145;48.588;9.250;2024-02-04T02:50:24;7.50;99.90
18041;DHT22;9145;48.588;9.250;2024-02-04T02:52:51;7.50;99.90
18041;DHT22;9145;48.588;9.250;2024-02-04T02:55:18;7.50;99.90
18041;DHT22;9145;48.588;9.250;2024-02-04T02:57:45;7.60;99.90
18041;DHT22;9145;48.588;9.250;2024-02-04T03:00:14;7.60;99.90
18041;DHT22;9145;48.588;9.250;2024-02-04T03:02:41;7.60;99.90
18041;DHT22;9145;48.588;9.250;2024-02-04T03:05:08;7.50;99.90
18041;DHT22;9145;48.588;9.250;2024-02-04T03:07:35;7.60;99.90
18041;DHT22;9145;48.588;9.250;2024-02-04T03:10:01;7.60;99.90
18041;DHT22;9145;48.588;9.250;2024-02-04T03:12:28;7.60;99.90
18041;DHT22;9145;48.588;9.250;2024-02-04T03:14:55;7.60;99.90
18041;DHT22;9145;48.588;9.250;2024-02-04T03:17:23;7.60;99.90
18041;DHT22;9145;48.588;9.250;2024-02-04T03:19:50;7.60;99.90
18041;DHT22;9145;48.588;9.250;2024-02-04T03:22:19;7.70;99.90
18041;DHT22;9145;48.588;9.250;2024-02-04T03:24:47;7.70;99.90
18041;DHT22;9145;48.588;9.250;2024-02-04T03:27:13;7.70;99.90
18041;DHT22;9145;48.588;9.250;2024-02-04T03:29:40;7.70;99.90
18041;DHT22;9145;48.588;9.250;2024-02-04T03:32:07;7.70;99.90
18041;DHT22;9145;48.588;9.250;2024-02-04T03:34:35;7.60;99.90
18041;DHT22;9145;48.588;9.250;2024-02-04T03:37:02;7.70;99.90
18041;DHT22;9145;48.588;9.250;2024-02-04T03:39:29;7.60;99.90
18041;DHT22;9145;48.588;9.250;2024-02-04T03:41:56;7.60;99.90
18041;DHT22;9145;48.588;9.250;2024-02-04T03:44:23;7.60;99.90
18041;DHT22;9145;48.588;9.250;2024-02-04T03:46:50;7.50;99.90
18041;DHT22;9145;48.588;9.250;2024-02-04T03:49:17;7.60;99.90
18041;DHT22;9145;48.588;9.250;2024-02-04T03:51:46;7.60;99.90
18041;DHT22;9145;48.588;9.250;2024-02-04T03:54:13;7.60;99.90
18041;DHT22;9145;48.588;9.250;2024-02-04T03:56:39;7.60;99.90
18041;DHT22;9145;48.588;9.250;2024-02-04T03:59:08;7.60;99.90
18041;DHT22;9145;48.588;9.250;2024-02-04T04:01:36;7.60;99.90
18041;DHT22;9145;48.588;9.250;2024-02-04T04:04:03;7.60;99.90
18041;DHT22;9145;48.588;9.250;2024-02-04T04:06:30;7.60;99.90
18041;DHT22;9145;48.588;9.250;2024-02-04T04:08:58;7.60;99.90
18041;DHT22;9145;48.588;9.250;2024-02-04T04:11:25;7.60;99.90
18041;DHT22;9145;48.588;9.250;2024-02-04T04:13:52;7.60;99.90
18041;DHT22;9145;48.588;9.250;2024-02-04T04:16:20;7.60;99.90
18041;DHT22;9145;48.588;9.250;2024-02-04T04:18:47;7.70;99.90
18041;DHT22;9145;48.588;9.250;2024-02-04T04:21:14;7.70;99.90
18041;DHT22;9145;48.588;9.250;2024-02-04T04:23:41;7.70;99.90
18041;DHT22;9145;48.588;9.250;2024-02-04T04:26:09;7.70;99.90
18041;DHT22;9145;48.588;9.250;2024-02-04T04:28:36;7.70;99.90
18041;DHT22;9145;48.588;9.250;2024-02-04T04:31:03;7.70;99.90
18041;DHT22;9145;48.588;9.250;2024-02-04T04:33:30;7.70;99.90
18041;DHT22;9145;48.588;9.250;2024-02-04T04:35:57;7.70;99.90
18041;DHT22;9145;48.588;9.250;2024-02-04T04:38:23;7.70;99.90
18041;DHT22;9145;48.588;9.250;2024-02-04T04:40:50;7.60;99.90
18041;DHT22;9145;48.588;9.250;2024-02-04T04:43:18;7.60;99.90
18041;DHT22;9145;48.588;9.250;2024-02-04T04:45:45;7.60;99.90
18041;DHT22;9145;48.588;9.250;2024-02-04T04:48:12;7.60;99.90
18041;DHT22;9145;48.588;9.250;2024-02-04T04:50:39;7.50;99.90
18041;DHT22;9145;48.588;9.250;2024-02-04T04:53:06;7.60;99.90
18041;DHT22;9145;48.588;9.250;2024-02-04T04:55:33;7.60;99.90
18041;DHT22;9145;48.588;9.250;2024-02-04T04:58:00;7.60;99.90
18041;DHT22;9145;48.588;9.250;2024-02-04T05:00:28;7.50;99.90
18041;DHT22;9145;48.588;9.250;2024-02-04T05:02:55;7.50;99.90
18041;DHT22;9145;48.588;9.250;2024-02-04T05:05:21;7.50;99.90
18041;DHT22;9145;48.588;9.250;2024-02-04T05:07:48;7.60;99.90
18041;DHT22;9145;48.588;9.250;2024-02-04T05:10:15;7.50;99.90
18041;DHT22;9145;48.588;9.250;2024-02-04T05:12:42;7.50;99.90
18041;DHT22;9145;48.588;9.250;2024-02-04T05:15:09;7.50;99.90
18041;DHT22;9145;48.588;9.250;2024-02-04T05:17:37;7.50;99.90
18041;DHT22;9145;48.588;9.250;2024-02-04T05:20:05;7.50;99.90
18041;DHT22;9145;48.588;9.250;2024-02-04T05:22:33;7.40;99.90
18041;DHT22;9145;48.588;9.250;2024-02-04T05:25:00;7.40;99.90
18041;DHT22;9145;48.588;9.250;2024-02-04T05:27:27;7.40;99.90
18041;DHT22;9145;48.588;9.250;2024-02-04T05:29:53;7.40;99.90
18041;DHT22;9145;48.588;9.250;2024-02-04T05:32:20;7.40;99.90
18041;DHT22;9145;48.588;9.250;2024-02-04T05:34:48;7.40;99.90
18041;DHT22;9145;48.588;9.250;2024-02-04T05:37:15;7.40;99.90
18041;DHT22;9145;48.588;9.250;2024-02-04T05:39:42;7.40;99.90
18041;DHT22;9145;48.588;9.250;2024-02-04T05:42:09;7.40;99.90
18041;DHT22;9145;48.588;9.250;2024-02-04T05:44:35;7.40;99.90
18041;DHT22;9145;48.588;9.250;2024-02-04T05:47:02;7.40;99.90
18041;DHT22;9145;48.588;9.250;2024-02-04T05:49:29;7.40;99.90
18041;DHT22;9145;48.588;9.250;2024-02-04T05:51:57;7.40;99.90
18041;DHT22;9145;48.588;9.250;2024-02-04T05:54:24;7.40;99.90
18041;DHT22;9145;48.588;9.250;2024-02-04T05:56:51;7.40;99.90
18041;DHT22;9145;48.588;9.250;2024-02-04T05:59:18;7.50;99.90
18041;DHT22;9145;48.588;9.250;2024-02-04T06:01:45;7.50;99.90
18041;DHT22;9145;48.588;9.250;2024-02-04T06:04:12;7.50;99.90
18041;DHT22;9145;48.588;9.250;2024-02-04T06:06:38;7.50;99.90
18041;DHT22;9145;48.588;9.250;2024-02-04T06:09:06;7.50;99.90
18041;DHT22;9145;48.588;9.250;2024-02-04T06:11:34;7.50;99.90
18041;DHT22;9145;48.588;9.250;2024-02-04T06:14:00;7.50;99.90
18041;DHT22;9145;48.588;9.250;2024-02-04T06:16:27;7.50;99.90
18041;DHT22;9145;48.588;9.250;2024-02-04T06:18:54;7.50;99.90
18041;DHT22;9145;48.588;9.250;2024-02-04T06:21:23;7.50;99.90
18041;DHT22;9145;48.588;9.250;2024-02-04T06:23:50;7.50;99.90
18041;DHT22;9145;48.588;9.250;2024-02-04T06:26:18;7.50;99.90
18041;DHT22;9145;48.588;9.250;2024-02-04T06:28:45;7.50;99.90
18041;DHT22;9145;48.588;9.250;2024-02-04T06:31:14;7.40;99.90
18041;DHT22;9145;48.588;9.250;2024-02-04T06:33:41;7.40;99.90
18041;DHT22;9145;48.588;9.250;2024-02-04T06:36:09;7.40;99.90
18041;DHT22;9145;48.588;9.250;2024-02-04T06:38:36;7.50;99.90
18041;DHT22;9145;48.588;9.250;2024-02-04T06:41:03;7.50;99.90
18041;DHT22;9145;48.588;9.250;2024-02-04T06:43:32;7.50;99.90
18041;DHT22;9145;48.588;9.250;2024-02-04T06:45:59;7.40;99.90
18041;DHT22;9145;48.588;9.250;2024-02-04T06:48:25;7.40;99.90
18041;DHT22;9145;48.588;9.250;2024-02-04T06:50:52;7.50;99.90
18041;DHT22;9145;48.588;9.250;2024-02-04T06:53:19;7.50;99.90
18041;DHT22;9145;48.588;9.250;2024-02-04T06:55:46;7.50;99.90
18041;DHT22;9145;48.588;9.250;2024-02-04T06:58:12;7.50;99.90
18041;DHT22;9145;48.588;9.250;2024-02-04T07:00:41;7.50;99.90
18041;DHT22;9145;48.588;9.250;2024-02-04T07:03:08;7.50;99.90
18041;DHT22;9145;48.588;9.250;2024-02-04T07:05:37;7.50;99.90
18041;DHT22;9145;48.588;9.250;2024-02-04T07:08:04;7.50;99.90
18041;DHT22;9145;48.588;9.250;2024-02-04T07:10:31;7.50;99.90
18041;DHT22;9145;48.588;9.250;2024-02-04T07:12:57;7.50;99.90
18041;DHT22;9145;48.588;9.250;2024-02-04T07:15:24;7.50;99.90
18041;DHT22;9145;48.588;9.250;2024-02-04T07:17:52;7.50;99.90
18041;DHT22;9145;48.588;9.250;2024-02-04T07:20:19;7.50;99.90
18041;DHT22;9145;48.588;9.250;2024-02-04T07:22:46;7.50;99.90
18041;DHT22;9145;48.588;9.250;2024-02-04T07:25:13;7.50;99.90
18041;DHT22;9145;48.588;9.250;2024-02-04T07:27:40;7.50;99.90
18041;DHT22;9145;48.588;9.250;2024-02-04T07:30:07;7.50;99.90
18041;DHT22;9145;48.588;9.250;2024-02-04T07:32:34;7.50;99.90
18041;DHT22;9145;48.588;9.250;2024-02-04T07:35:04;7.60;99.90
18041;DHT22;9145;48.588;9.250;2024-02-04T07:37:31;7.50;99.90
18041;DHT22;9145;48.588;9.250;2024-02-04T07:39:59;7.50;99.90
18041;DHT22;9145;48.588;9.250;2024-02-04T07:42:26;7.60;99.90
18041;DHT22;9145;48.588;9.250;2024-02-04T07:44:53;7.60;99.90
18041;DHT22;9145;48.588;9.250;2024-02-04T07:47:20;7.60;99.90
18041;DHT22;9145;48.588;9.250;2024-02-04T07:49:47;7.60;99.90
18041;DHT22;9145;48.588;9.250;2024-02-04T07:52:15;7.60;99.90
18041;DHT22;9145;48.588;9.250;2024-02-04T07:54:42;7.60;99.90
18041;DHT22;9145;48.588;9.250;2024-02-04T07:57:09;7.60;99.90
18041;DHT22;9145;48.588;9.250;2024-02-04T07:59:36;7.60;99.90
18041;DHT22;9145;48.588;9.250;2024-02-04T08:02:03;7.60;99.90
18041;DHT22;9145;48.588;9.250;2024-02-04T08:04:32;7.60;99.90
18041;DHT22;9145;48.588;9.250;2024-02-04T08:06:59;7.70;99.90
18041;DHT22;9145;48.588;9.250;2024-02-04T08:09:27;7.70;99.90
18041;DHT22;9145;48.588;9.250;2024-02-04T08:11:54;7.70;99.90
18041;DHT22;9145;48.588;9.250;2024-02-04T08:14:21;7.70;99.90
18041;DHT22;9145;48.588;9.250;2024-02-04T08:16:47;7.80;99.90
18041;DHT22;9145;48.588;9.250;2024-02-04T08:19:15;7.80;99.90
18041;DHT22;9145;48.588;9.250;2024-02-04T08:21:42;7.80;99.90
18041;DHT22;9145;48.588;9.250;2024-02-04T08:24:08;7.80;99.90
18041;DHT22;9145;48.588;9.250;2024-02-04T08:26:36;7.80;99.90
18041;DHT22;9145;48.588;9.250;2024-02-04T08:29:03;7.90;99.90
18041;DHT22;9145;48.588;9.250;2024-02-04T08:31:31;7.90;99.90
18041;DHT22;9145;48.588;9.250;2024-02-04T08:33:58;7.90;99.90
18041;DHT22;9145;48.588;9.250;2024-02-04T08:36:26;7.90;99.90
18041;DHT22;9145;48.588;9.250;2024-02-04T08:38:53;7.90;99.90
18041;DHT22;9145;48.588;9.250;2024-02-04T08:41:19;7.90;99.90
18041;DHT22;9145;48.588;9.250;2024-02-04T08:43:47;7.90;99.90
18041;DHT22;9145;48.588;9.250;2024-02-04T08:46:14;8.00;99.90
18041;DHT22;9145;48.588;9.250;2024-02-04T08:48:41;8.10;99.90
18041;DHT22;9145;48.588;9.250;2024-02-04T08:51:10;8.10;99.90
18041;DHT22;9145;48.588;9.250;2024-02-04T08:53:37;8.20;99.90
18041;DHT22;9145;48.588;9.250;2024-02-04T08:56:06;8.20;99.90
18041;DHT22;9145;48.588;9.250;2024-02-04T08:58:33;8.20;99.90
18041;DHT22;9145;48.588;9.250;2024-02-04T09:01:01;8.20;99.90
18041;DHT22;9145;48.588;9.250;2024-02-04T09:03:27;8.30;99.90
18041;DHT22;9145;48.588;9.250;2024-02-04T09:05:56;8.40;99.90
18041;DHT22;9145;48.588;9.250;2024-02-04T09:08:23;8.40;99.90
18041;DHT22;9145;48.588;9.250;2024-02-04T09:10:50;8.50;99.90
18041;DHT22;9145;48.588;9.250;2024-02-04T09:13:16;8.50;99.90
18041;DHT22;9145;48.588;9.250;2024-02-04T09:15:43;8.50;99.90
18041;DHT22;9145;48.588;9.250;2024-02-04T09:18:11;8.50;99.90
18041;DHT22;9145;48.588;9.250;2024-02-04T09:20:38;8.50;99.90
18041;DHT22;9145;48.588;9.250;2024-02-04T09:23:05;8.50;99.90
18041;DHT22;9145;48.588;9.250;2024-02-04T09:25:32;8.50;99.90
18041;DHT22;9145;48.588;9.250;2024-02-04T09:27:59;8.50;99.90
18041;DHT22;9145;48.588;9.250;2024-02-04T09:30:26;8.50;99.90
18041;DHT22;9145;48.588;9.250;2024-02-04T09:32:52;8.60;99.90
18041;DHT22;9145;48.588;9.250;2024-02-04T09:35:20;8.50;99.90
18041;DHT22;9145;48.588;9.250;2024-02-04T09:37:47;8.60;99.90
18041;DHT22;9145;48.588;9.250;2024-02-04T09:40:14;8.60;99.90
18041;DHT22;9145;48.588;9.250;2024-02-04T09:42:41;8.60;99.90
18041;DHT22;9145;48.588;9.250;2024-02-04T09:45:09;8.60;99.90
18041;DHT22;9145;48.588;9.250;2024-02-04T09:47:37;8.60;99.90
18041;DHT22;9145;48.588;9.250;2024-02-04T09:50:05;8.70;99.90
18041;DHT22;9145;48.588;9.250;2024-02-04T09:52:34;8.70;99.90
18041;DHT22;9145;48.588;9.250;2024-02-04T09:55:07;8.70;99.90
18041;DHT22;9145;48.588;9.250;2024-02-04T09:57:36;8.70;99.90
18041;DHT22;9145;48.588;9.250;2024-02-04T10:00:03;8.70;99.90
18041;DHT22;9145;48.588;9.250;2024-02-04T10:02:32;8.80;99.90
18041;DHT22;9145;48.588;9.250;2024-02-04T10:04:59;8.80;99.90
18041;DHT22;9145;48.588;9.250;2024-02-04T10:07:26;8.80;99.90
18041;DHT22;9145;48.588;9.250;2024-02-04T10:09:55;8.80;99.90
18041;DHT22;9145;48.588;9.250;2024-02-04T10:12:22;8.80;99.90
18041;DHT22;9145;48.588;9.250;2024-02-04T10:14:49;8.80;99.90
18041;DHT22;9145;48.588;9.250;2024-02-04T10:17:16;8.80;99.90
18041;DHT22;9145;48.588;9.250;2024-02-04T10:19:42;8.80;99.90
18041;DHT22;9145;48.588;9.250;2024-02-04T10:22:09;8.80;99.90
18041;DHT22;9145;48.588;9.250;2024-02-04T10:24:36;8.80;99.90
18041;DHT22;9145;48.588;9.250;2024-02-04T10:27:05;8.90;99.90
18041;DHT22;9145;48.588;9.250;2024-02-04T10:29:31;9.10;99.90
18041;DHT22;9145;48.588;9.250;2024-02-04T10:31:58;9.30;99.90
18041;DHT22;9145;48.588;9.250;2024-02-04T10:34:26;9.40;99.90
18041;DHT22;9145;48.588;9.250;2024-02-04T10:36:53;9.40;99.90
18041;DHT22;9145;48.588;9.250;2024-02-04T10:39:20;9.40;99.90
18041;DHT22;9145;48.588;9.250;2024-02-04T10:41:49;9.40;99.90
18041;DHT22;9145;48.588;9.250;2024-02-04T10:44:21;9.40;99.90
18041;DHT22;9145;48.588;9.250;2024-02-04T10:46:49;9.50;99.90
18041;DHT22;9145;48.588;9.250;2024-02-04T10:49:18;9.40;99.90
18041;DHT22;9145;48.588;9.250;2024-02-04T10:51:46;9.50;99.90
18041;DHT22;9145;48.588;9.250;2024-02-04T10:54:15;9.50;99.90
18041;DHT22;9145;48.588;9.250;2024-02-04T10:56:44;9.60;99.90
18041;DHT22;9145;48.588;9.250;2024-02-04T10:59:12;9.70;99.90
18041;DHT22;9145;48.588;9.250;2024-02-04T11:01:45;9.70;99.90
18041;DHT22;9145;48.588;9.250;2024-02-04T11:04:14;9.80;99.90
18041;DHT22;9145;48.588;9.250;2024-02-04T11:06:41;9.90;99.90
18041;DHT22;9145;48.588;9.250;2024-02-04T11:09:09;10.00;99.90
18041;DHT22;9145;48.588;9.250;2024-02-04T11:11:37;10.30;99.90
18041;DHT22;9145;48.588;9.250;2024-02-04T11:14:08;10.20;99.90
18041;DHT22;9145;48.588;9.250;2024-02-04T11:16:55;10.10;99.90
18041;DHT22;9145;48.588;9.250;2024-02-04T11:19:35;10.00;99.90
18041;DHT22;9145;48.588;9.250;2024-02-04T11:22:21;10.00;99.90
18041;DHT22;9145;48.588;9.250;2024-02-04T11:25:03;10.00;99.90
18041;DHT22;9145;48.588;9.250;2024-02-04T11:27:34;10.00;99.90
18041;DHT22;9145;48.588;9.250;2024-02-04T11:30:01;10.00;99.90
18041;DHT22;9145;48.588;9.250;2024-02-04T11:32:31;10.00;99.90
18041;DHT22;9145;48.588;9.250;2024-02-04T11:34:58;10.10;99.90
18041;DHT22;9145;48.588;9.250;2024-02-04T11:37:26;10.30;99.90
18041;DHT22;9145;48.588;9.250;2024-02-04T11:39:54;10.60;99.90
18041;DHT22;9145;48.588;9.250;2024-02-04T11:42:22;10.80;99.90
18041;DHT22;9145;48.588;9.250;2024-02-04T11:44:50;10.90;99.90
18041;DHT22;9145;48.588;9.250;2024-02-04T11:47:23;11.10;99.90
18041;DHT22;9145;48.588;9.250;2024-02-04T11:49:55;11.40;99.90
18041;DHT22;9145;48.588;9.250;2024-02-04T11:52:22;11.70;99.90
18041;DHT22;9145;48.588;9.250;2024-02-04T11:54:49;12.00;99.90
18041;DHT22;9145;48.588;9.250;2024-02-04T11:57:16;12.00;99.90
18041;DHT22;9145;48.588;9.250;2024-02-04T11:59:43;12.10;99.90
18041;DHT22;9145;48.588;9.250;2024-02-04T12:02:11;12.20;99.90
18041;DHT22;9145;48.588;9.250;2024-02-04T12:04:38;12.10;99.90
18041;DHT22;9145;48.588;9.250;2024-02-04T12:07:08;11.90;99.90
18041;DHT22;9145;48.588;9.250;2024-02-04T12:09:35;11.90;99.90
18041;DHT22;9145;48.588;9.250;2024-02-04T12:12:03;11.80;99.90
18041;DHT22;9145;48.588;9.250;2024-02-04T12:14:30;11.80;99.90
18041;DHT22;9145;48.588;9.250;2024-02-04T12:16:57;11.70;99.90
18041;DHT22;9145;48.588;9.250;2024-02-04T12:19:24;11.70;99.90
18041;DHT22;9145;48.588;9.250;2024-02-04T12:21:52;11.70;99.90
18041;DHT22;9145;48.588;9.250;2024-02-04T12:24:21;11.60;99.90
18041;DHT22;9145;48.588;9.250;2024-02-04T12:26:48;11.70;99.90
18041;DHT22;9145;48.588;9.250;2024-02-04T12:29:15;11.70;99.90
18041;DHT22;9145;48.588;9.250;2024-02-04T12:31:42;11.70;99.90
18041;DHT22;9145;48.588;9.250;2024-02-04T12:34:12;11.70;99.90
18041;DHT22;9145;48.588;9.250;2024-02-04T12:36:39;11.60;99.90
18041;DHT22;9145;48.588;9.250;2024-02-04T12:39:06;11.60;99.90
18041;DHT22;9145;48.588;9.250;2024-02-04T12:41:37;11.60;99.90
18041;DHT22;9145;48.588;9.250;2024-02-04T12:44:04;11.70;99.90
18041;DHT22;9145;48.588;9.250;2024-02-04T12:46:31;11.80;99.90
18041;DHT22;9145;48.588;9.250;2024-02-04T12:48:58;11.80;99.90
18041;DHT22;9145;48.588;9.250;2024-02-04T12:51:25;11.90;99.90
18041;DHT22;9145;48.588;9.250;2024-02-04T12:54:05;11.70;99.90
18041;DHT22;9145;48.588;9.250;2024-02-04T12:56:44;11.70;99.90
18041;DHT22;9145;48.588;9.250;2024-02-04T12:59:11;12.00;99.90
18041;DHT22;9145;48.588;9.250;2024-02-04T13:01:38;12.10;99.90
18041;DHT22;9145;48.588;9.250;2024-02-04T13:04:05;12.30;99.90
18041;DHT22;9145;48.588;9.250;2024-02-04T13:06:37;12.40;99.90
18041;DHT22;9145;48.588;9.250;2024-02-04T13:09:04;12.50;99.90
18041;DHT22;9145;48.588;9.250;2024-02-04T13:11:32;12.60;99.90
18041;DHT22;9145;48.588;9.250;2024-02-04T13:14:00;12.50;99.90
18041;DHT22;9145;48.588;9.250;2024-02-04T13:16:27;12.50;99.90
18041;DHT22;9145;48.588;9.250;2024-02-04T13:18:55;12.50;99.90
18041;DHT22;9145;48.588;9.250;2024-02-04T13:21:22;12.40;99.90
18041;DHT22;9145;48.588;9.250;2024-02-04T13:23:50;12.50;99.90
18041;DHT22;9145;48.588;9.250;2024-02-04T13:26:17;12.50;99.90
18041;DHT22;9145;48.588;9.250;2024-02-04T13:28:44;12.60;99.90
18041;DHT22;9145;48.588;9.250;2024-02-04T13:31:12;12.80;99.90
18041;DHT22;9145;48.588;9.250;2024-02-04T13:33:39;12.90;99.90
18041;DHT22;9145;48.588;9.250;2024-02-04T13:36:07;12.90;99.90
18041;DHT22;9145;48.588;9.250;2024-02-04T13:38:34;12.90;99.90
18041;DHT22;9145;48.588;9.250;2024-02-04T13:41:01;12.80;99.90
18041;DHT22;9145;48.588;9.250;2024-02-04T13:43:29;12.80;99.90
18041;DHT22;9145;48.588;9.250;2024-02-04T13:45:56;12.60;99.90
18041;DHT22;9145;48.588;9.250;2024-02-04T13:48:24;12.50;99.90
18041;DHT22;9145;48.588;9.250;2024-02-04T13:50:51;12.40;99.90
18041;DHT22;9145;48.588;9.250;2024-02-04T13:53:19;12.40;99.90
18041;DHT22;9145;48.588;9.250;2024-02-04T13:55:46;12.50;99.90
18041;DHT22;9145;48.588;9.250;2024-02-04T13:58:13;12.40;99.90
18041;DHT22;9145;48.588;9.250;2024-02-04T14:00:40;12.40;99.90
18041;DHT22;9145;48.588;9.250;2024-02-04T14:03:08;12.30;99.90
18041;DHT22;9145;48.588;9.250;2024-02-04T14:05:36;12.40;99.90
18041;DHT22;9145;48.588;9.250;2024-02-04T14:08:03;12.40;99.90
18041;DHT22;9145;48.588;9.250;2024-02-04T14:10:31;12.30;99.90
18041;DHT22;9145;48.588;9.250;2024-02-04T14:12:58;12.30;99.90
18041;DHT22;9145;48.588;9.250;2024-02-04T14:15:24;12.20;99.90
18041;DHT22;9145;48.588;9.250;2024-02-04T14:17:51;12.20;99.90
18041;DHT22;9145;48.588;9.250;2024-02-04T14:20:19;12.20;99.90
18041;DHT22;9145;48.588;9.250;2024-02-04T14:22:49;12.20;99.90
18041;DHT22;9145;48.588;9.250;2024-02-04T14:25:16;12.20;99.90
18041;DHT22;9145;48.588;9.250;2024-02-04T14:27:43;12.20;99.90
18041;DHT22;9145;48.588;9.250;2024-02-04T14:30:10;12.20;99.90
18041;DHT22;9145;48.588;9.250;2024-02-04T14:32:37;12.20;99.90
18041;DHT22;9145;48.588;9.250;2024-02-04T14:35:05;12.20;99.90
18041;DHT22;9145;48.588;9.250;2024-02-04T14:37:34;12.10;99.90
18041;DHT22;9145;48.588;9.250;2024-02-04T14:40:03;12.00;99.90
18041;DHT22;9145;48.588;9.250;2024-02-04T14:42:32;11.90;99.90
18041;DHT22;9145;48.588;9.250;2024-02-04T14:44:59;11.80;99.90
18041;DHT22;9145;48.588;9.250;2024-02-04T14:47:26;11.70;99.90
18041;DHT22;9145;48.588;9.250;2024-02-04T14:49:53;11.60;99.90
18041;DHT22;9145;48.588;9.250;2024-02-04T14:52:20;11.50;99.90
18041;DHT22;9145;48.588;9.250;2024-02-04T14:54:47;11.40;99.90
18041;DHT22;9145;48.588;9.250;2024-02-04T14:57:15;11.40;99.90
18041;DHT22;9145;48.588;9.250;2024-02-04T14:59:42;11.40;99.90
18041;DHT22;9145;48.588;9.250;2024-02-04T15:02:09;11.30;99.90
18041;DHT22;9145;48.588;9.250;2024-02-04T15:04:36;11.30;99.90
18041;DHT22;9145;48.588;9.250;2024-02-04T15:07:03;11.30;99.90
18041;DHT22;9145;48.588;9.250;2024-02-04T15:09:31;11.30;99.90
18041;DHT22;9145;48.588;9.250;2024-02-04T15:11:58;11.30;99.90
18041;DHT22;9145;48.588;9.250;2024-02-04T15:14:28;11.20;99.90
18041;DHT22;9145;48.588;9.250;2024-02-04T15:16:55;11.10;99.90
18041;DHT22;9145;48.588;9.250;2024-02-04T15:19:23;11.10;99.90
18041;DHT22;9145;48.588;9.250;2024-02-04T15:21:51;11.10;99.90
18041;DHT22;9145;48.588;9.250;2024-02-04T15:24:18;11.10;99.90
18041;DHT22;9145;48.588;9.250;2024-02-04T15:26:48;11.00;99.90
18041;DHT22;9145;48.588;9.250;2024-02-04T15:29:15;11.00;99.90
18041;DHT22;9145;48.588;9.250;2024-02-04T15:31:44;11.00;99.90
18041;DHT22;9145;48.588;9.250;2024-02-04T15:34:14;10.90;99.90
18041;DHT22;9145;48.588;9.250;2024-02-04T15:36:41;10.80;99.90
18041;DHT22;9145;48.588;9.250;2024-02-04T15:39:08;10.70;99.90
18041;DHT22;9145;48.588;9.250;2024-02-04T15:41:37;10.70;99.90
18041;DHT22;9145;48.588;9.250;2024-02-04T15:44:04;10.70;99.90
18041;DHT22;9145;48.588;9.250;2024-02-04T15:46:32;10.70;99.90
18041;DHT22;9145;48.588;9.250;2024-02-04T15:49:01;10.60;99.90
18041;DHT22;9145;48.588;9.250;2024-02-04T15:51:29;10.60;99.90
18041;DHT22;9145;48.588;9.250;2024-02-04T15:53:57;10.60;99.90
18041;DHT22;9145;48.588;9.250;2024-02-04T15:56:26;10.50;99.90
18041;DHT22;9145;48.588;9.250;2024-02-04T15:59:06;10.50;99.90